Time;durP1;ratioP1;P1;durP2;ratioP2;P2;SDS_P1;SDS_P2;PMS_P1;PMS_P2;Temp;Humidity;BMP_temperature;BMP_pressure;BME280_temperature;BME280_humidity;BME280_pressure;Samples;Min_cycle;Max_cycle;Signal;HPM_P1;HPM_P2
2022/11/12 00:01:24;;;;;;;11.13;10.43;;;6.10;99.90;;;;;;4218760;28;20116;-86
2022/11/12 00:03:43;;;;;;;10.32;9.98;;;5.90;99.90;;;;;;4229860;28;20080;-86
2022/11/12 00:06:03;;;;;;;10.15;9.68;;;5.90;99.90;;;;;;4227829;28;20069;-86
2022/11/12 00:08:23;;;;;;;9.68;9.10;;;5.80;99.90;;;;;;4218181;28;20066;-86
2022/11/12 00:10:44;;;;;;;10.35;9.68;;;5.90;99.90;;;;;;4220357;28;20043;-86
2022/11/12 00:13:04;;;;;;;10.38;9.77;;;5.90;99.90;;;;;;4233235;28;20034;-86
2022/11/12 00:15:25;;;;;;;12.07;11.38;;;5.80;99.90;;;;;;4223283;28;20263;-86
2022/11/12 00:17:45;;;;;;;13.90;12.98;;;5.70;99.90;;;;;;4234208;28;20122;-86
2022/11/12 00:20:06;;;;;;;13.20;12.35;;;5.60;99.90;;;;;;4234816;28;20384;-86
2022/11/12 00:22:26;;;;;;;12.68;11.98;;;5.50;99.90;;;;;;4231052;28;20039;-86
2022/11/12 00:24:46;;;;;;;14.30;13.50;;;5.50;99.90;;;;;;4233905;28;20042;-86
2022/11/12 00:27:06;;;;;;;13.75;12.73;;;5.40;99.90;;;;;;4221574;28;20066;-86
2022/11/12 00:29:26;;;;;;;12.23;11.57;;;5.40;99.90;;;;;;4230616;28;20127;-86
2022/11/12 00:31:45;;;;;;;9.00;8.70;;;5.40;99.90;;;;;;4226356;28;20108;-86
2022/11/12 00:34:05;;;;;;;11.93;11.07;;;5.50;99.90;;;;;;4215947;28;20112;-86
2022/11/12 00:36:25;;;;;;;13.70;13.07;;;5.40;99.90;;;;;;4226741;28;20062;-86
2022/11/12 00:38:44;;;;;;;12.95;12.02;;;5.40;99.90;;;;;;4232300;28;20042;-86
2022/11/12 00:41:04;;;;;;;11.77;11.10;;;5.30;99.90;;;;;;4230208;28;20043;-86
2022/11/12 00:43:24;;;;;;;11.85;11.32;;;5.30;99.90;;;;;;4226822;28;20097;-86
2022/11/12 00:45:43;;;;;;;11.38;10.63;;;5.30;99.90;;;;;;4229826;28;20055;-86
2022/11/12 00:48:04;;;;;;;11.52;10.80;;;5.30;99.90;;;;;;4233338;28;20050;-86
2022/11/12 00:50:24;;;;;;;12.75;11.98;;;5.20;99.90;;;;;;4228902;28;20044;-86
2022/11/12 00:52:44;;;;;;;13.00;12.40;;;5.20;99.90;;;;;;4213484;28;20042;-86
2022/11/12 00:55:04;;;;;;;16.45;15.52;;;5.10;99.90;;;;;;4226141;28;20073;-86
2022/11/12 00:57:23;;;;;;;16.67;15.95;;;5.10;99.90;;;;;;4226376;28;20054;-86
2022/11/12 00:59:43;;;;;;;17.02;16.25;;;5.00;99.90;;;;;;4220687;28;20087;-86
2022/11/12 01:02:02;;;;;;;16.02;15.27;;;5.00;99.90;;;;;;4230106;28;20097;-86
2022/11/12 01:04:22;;;;;;;16.05;15.27;;;5.00;99.90;;;;;;4229514;28;20373;-86
2022/11/12 01:06:43;;;;;;;11.18;10.80;;;5.00;99.90;;;;;;4228374;28;20058;-86
2022/11/12 01:09:02;;;;;;;9.82;9.63;;;5.10;99.90;;;;;;4216561;28;20062;-86
2022/11/12 01:11:25;;;;;;;11.75;11.55;;;5.00;99.90;;;;;;4231465;28;20373;-86
2022/11/12 01:14:10;;;;;;;10.70;10.30;;;5.10;99.90;;;;;;4226382;28;20250;-86
2022/11/12 01:16:34;;;;;;;11.75;11.55;;;5.10;99.90;;;;;;4232912;28;20073;-86
2022/11/12 01:18:57;;;;;;;14.48;14.07;;;5.10;99.90;;;;;;4227854;28;20042;-86
2022/11/12 01:21:17;;;;;;;11.70;11.25;;;5.20;99.90;;;;;;4217093;28;20051;-86
2022/11/12 01:23:41;;;;;;;13.57;13.13;;;5.20;99.90;;;;;;4230271;28;20258;-86
2022/11/12 01:26:09;;;;;;;12.27;11.98;;;5.20;99.90;;;;;;4222063;28;20054;-86
2022/11/12 01:28:29;;;;;;;9.50;9.13;;;5.20;99.90;;;;;;4214988;28;20147;-86
2022/11/12 01:30:49;;;;;;;9.55;9.30;;;5.30;99.90;;;;;;4229384;28;20078;-86
2022/11/12 01:33:09;;;;;;;8.63;8.35;;;5.30;99.90;;;;;;4226099;28;20081;-86
2022/11/12 01:35:29;;;;;;;8.50;8.30;;;5.30;99.90;;;;;;4218114;28;20051;-86
2022/11/12 01:37:48;;;;;;;8.88;8.68;;;5.30;99.90;;;;;;4220934;28;20039;-86
2022/11/12 01:40:09;;;;;;;7.97;7.78;;;5.30;99.90;;;;;;4220518;28;20070;-86
2022/11/12 01:42:31;;;;;;;6.97;6.88;;;5.20;99.90;;;;;;4221933;28;20069;-86
2022/11/12 01:44:51;;;;;;;7.38;6.97;;;5.20;99.90;;;;;;4218344;28;20282;-86
2022/11/12 01:47:20;;;;;;;7.35;6.82;;;5.40;99.90;;;;;;4221857;28;20381;-86
2022/11/12 01:49:50;;;;;;;7.57;7.38;;;5.30;99.90;;;;;;4218925;28;20082;-86
2022/11/12 01:52:44;;;;;;;11.10;10.90;;;5.10;99.90;;;;;;4229954;28;20062;-86
2022/11/12 01:55:10;;;;;;;10.88;10.27;;;5.10;99.90;;;;;;4231391;28;20101;-86
2022/11/12 01:57:51;;;;;;;11.30;11.10;;;5.00;99.90;;;;;;4226981;28;20449;-86
2022/11/12 02:00:12;;;;;;;15.95;15.13;;;4.80;99.90;;;;;;4225069;28;20062;-86
2022/11/12 02:02:34;;;;;;;20.20;18.73;;;4.70;99.90;;;;;;4217369;28;20319;-86
2022/11/12 02:04:55;;;;;;;18.63;17.77;;;4.60;99.90;;;;;;4229305;28;20093;-86
2022/11/12 02:07:17;;;;;;;17.88;17.02;;;4.50;99.90;;;;;;4234155;28;20070;-86
2022/11/12 02:09:37;;;;;;;12.68;12.00;;;4.40;99.90;;;;;;4224522;28;20046;-86
2022/11/12 02:11:57;;;;;;;12.68;12.18;;;4.40;99.90;;;;;;4224526;28;20261;-86
2022/11/12 02:14:18;;;;;;;15.32;14.80;;;4.50;99.90;;;;;;4228486;28;20062;-86
2022/11/12 02:16:37;;;;;;;13.52;13.00;;;4.60;99.90;;;;;;4233185;28;20055;-86
2022/11/12 02:18:57;;;;;;;11.45;11.05;;;4.70;99.90;;;;;;4218630;28;20090;-86
2022/11/12 02:21:20;;;;;;;11.18;10.75;;;4.80;99.90;;;;;;4225632;28;20164;-86
2022/11/12 02:23:39;;;;;;;10.75;10.55;;;4.90;99.90;;;;;;4226672;28;20038;-86
2022/11/12 02:26:01;;;;;;;10.02;9.73;;;4.90;99.90;;;;;;4230442;28;20059;-86
2022/11/12 02:28:21;;;;;;;9.73;9.35;;;4.90;99.90;;;;;;4231426;28;20042;-86
2022/11/12 02:30:47;;;;;;;9.82;9.43;;;4.90;99.90;;;;;;4229301;28;20277;-86
2022/11/12 02:33:06;;;;;;;8.93;8.48;;;4.90;99.90;;;;;;4227742;28;20382;-86
2022/11/12 02:35:27;;;;;;;18.23;17.42;;;4.80;99.90;;;;;;4228099;28;20074;-86
2022/11/12 02:37:46;;;;;;;16.98;15.90;;;4.60;99.90;;;;;;4230441;28;20053;-86
2022/11/12 02:40:07;;;;;;;15.93;15.52;;;4.40;99.90;;;;;;4227604;28;20107;-86
2022/11/12 02:42:27;;;;;;;15.60;14.90;;;4.50;99.90;;;;;;4230237;28;20046;-86
2022/11/12 02:44:47;;;;;;;18.00;17.30;;;4.60;99.90;;;;;;4214533;28;20086;-86
2022/11/12 02:47:06;;;;;;;19.33;18.55;;;4.70;99.90;;;;;;4223774;28;20043;-86
2022/11/12 02:49:26;;;;;;;15.80;15.20;;;4.70;99.90;;;;;;4228671;28;20119;-86
2022/11/12 02:51:46;;;;;;;19.27;18.23;;;4.80;99.90;;;;;;4225515;28;20055;-86
2022/11/12 02:54:05;;;;;;;17.35;16.85;;;4.80;99.90;;;;;;4228707;28;20399;-86
2022/11/12 02:56:25;;;;;;;17.92;17.33;;;4.70;99.90;;;;;;4228805;28;20062;-86
2022/11/12 02:58:45;;;;;;;14.10;13.88;;;4.70;99.90;;;;;;4223035;28;20127;-86
2022/11/12 03:01:04;;;;;;;13.27;12.88;;;4.70;99.90;;;;;;4212132;28;20055;-86
2022/11/12 03:03:24;;;;;;;12.52;12.23;;;4.70;99.90;;;;;;4230802;28;20405;-86
2022/11/12 03:05:53;;;;;;;12.05;11.85;;;4.80;99.90;;;;;;4229444;28;20050;-86
2022/11/12 03:08:13;;;;;;;10.98;10.77;;;4.80;99.90;;;;;;4230333;28;20050;-87
2022/11/12 03:10:35;;;;;;;9.25;9.15;;;4.80;99.90;;;;;;4223075;28;20408;-86
2022/11/12 03:12:56;;;;;;;11.77;11.57;;;4.80;99.90;;;;;;4224456;28;20396;-86
2022/11/12 03:15:17;;;;;;;11.07;10.85;;;4.80;99.90;;;;;;4217956;28;20121;-86
2022/11/12 03:17:36;;;;;;;12.85;12.27;;;4.70;99.90;;;;;;4232001;28;20126;-86
2022/11/12 03:19:57;;;;;;;9.35;8.98;;;4.60;99.90;;;;;;4220675;28;20123;-86
2022/11/12 03:22:17;;;;;;;6.78;6.68;;;4.60;99.90;;;;;;4235224;28;20062;-86
2022/11/12 03:24:37;;;;;;;7.72;7.63;;;4.60;99.90;;;;;;4227380;28;20284;-86
2022/11/12 03:26:58;;;;;;;4.90;4.72;;;4.70;99.90;;;;;;4233237;28;20146;-86
2022/11/12 03:29:17;;;;;;;8.50;8.30;;;4.80;99.90;;;;;;4227794;28;20254;-86
2022/11/12 03:31:38;;;;;;;10.30;9.88;;;4.80;99.90;;;;;;4230764;28;20084;-86
2022/11/12 03:33:57;;;;;;;9.23;8.90;;;4.80;99.90;;;;;;4230829;28;20050;-86
2022/11/12 03:36:17;;;;;;;8.45;8.35;;;4.70;99.90;;;;;;4234908;28;20062;-86
2022/11/12 03:38:37;;;;;;;5.65;5.55;;;4.70;99.90;;;;;;4234671;28;20081;-86
2022/11/12 03:40:56;;;;;;;6.68;6.57;;;4.80;99.90;;;;;;4236557;28;20073;-86
2022/11/12 03:43:16;;;;;;;7.03;6.93;;;4.90;99.90;;;;;;4221965;28;20047;-86
2022/11/12 03:45:37;;;;;;;5.60;5.50;;;4.90;99.90;;;;;;4232617;28;20359;-86
2022/11/12 03:47:57;;;;;;;6.15;5.95;;;4.90;99.90;;;;;;4229411;28;20280;-86
2022/11/12 03:50:19;;;;;;;6.53;6.35;;;4.90;99.90;;;;;;4226428;28;20094;-86
2022/11/12 03:52:47;;;;;;;4.85;4.75;;;4.90;99.90;;;;;;4228505;28;20086;-86
2022/11/12 03:55:07;;;;;;;6.35;6.00;;;5.00;99.90;;;;;;4231184;28;20070;-86
2022/11/12 03:57:27;;;;;;;6.63;6.38;;;4.90;99.90;;;;;;4223389;28;20119;-86
2022/11/12 03:59:47;;;;;;;9.05;8.75;;;4.90;99.90;;;;;;4227602;28;20456;-86
2022/11/12 04:02:06;;;;;;;6.72;6.50;;;4.70;99.90;;;;;;4238414;28;20058;-85
2022/11/12 04:08:34;;;;;;;7.15;6.80;;;4.60;99.90;;;;;;4226446;28;20073;-86
2022/11/12 04:09:45;;;;;;;11.13;10.63;;;5.00;99.90;;;;;;4230245;28;20074;-86
2022/11/12 04:13:26;;;;;;;10.52;10.27;;;4.90;99.90;;;;;;4227054;28;20047;-86
2022/11/12 04:14:45;;;;;;;13.70;13.02;;;4.70;99.90;;;;;;4233497;28;20041;-86
2022/11/12 04:22:21;;;;;;;17.52;16.88;;;4.30;99.90;;;;;;4232722;28;20328;-86
2022/11/12 04:27:24;;;;;;;14.63;14.32;;;4.20;99.90;;;;;;4233330;28;20046;-86
2022/11/12 04:32:24;;;;;;;14.55;14.35;;;4.10;99.90;;;;;;4232047;28;20070;-86
2022/11/12 04:34:47;;;;;;;14.75;14.23;;;4.20;99.90;;;;;;4230775;28;20366;-86
2022/11/12 04:37:07;;;;;;;13.88;13.23;;;4.40;99.90;;;;;;4229205;28;20051;-86
2022/11/12 04:39:27;;;;;;;14.07;13.65;;;4.40;99.90;;;;;;4228713;28;20058;-86
2022/11/12 04:47:03;;;;;;;9.10;9.00;;;4.50;99.90;;;;;;4232181;28;20392;-86
2022/11/12 04:49:22;;;;;;;6.95;6.85;;;4.60;99.90;;;;;;4232777;28;20158;-86
2022/11/12 04:54:32;;;;;;;6.13;5.65;;;4.70;99.90;;;;;;4171663;28;20144;-86
2022/11/12 04:56:52;;;;;;;4.32;4.07;;;4.70;99.90;;;;;;4171809;28;20045;-86
2022/11/12 04:59:11;;;;;;;5.50;5.40;;;4.80;99.90;;;;;;4172083;28;20176;-86
2022/11/12 05:01:31;;;;;;;4.65;4.65;;;4.80;99.90;;;;;;4172248;28;20072;-86
2022/11/12 05:03:51;;;;;;;5.72;5.63;;;4.90;99.90;;;;;;4172203;28;20040;-86
2022/11/12 05:08:50;;;;;;;4.05;3.95;;;4.90;99.90;;;;;;4172204;28;20413;-86
2022/11/12 05:11:09;;;;;;;4.90;4.90;;;4.90;99.90;;;;;;4157976;28;20049;-86
2022/11/12 05:13:32;;;;;;;3.65;3.65;;;5.00;99.90;;;;;;4172047;28;20072;-86
2022/11/12 05:15:52;;;;;;;4.50;4.50;;;4.90;99.90;;;;;;4171677;28;20164;-86
2022/11/12 05:18:11;;;;;;;3.78;3.58;;;5.00;99.90;;;;;;4171985;28;20064;-86
2022/11/12 05:20:31;;;;;;;4.57;4.20;;;5.10;99.90;;;;;;4172028;28;20087;-86
2022/11/12 05:22:51;;;;;;;3.80;3.80;;;5.20;99.90;;;;;;4156860;28;20049;-86
2022/11/12 05:25:25;;;;;;;4.47;4.47;;;5.20;99.90;;;;;;4170315;28;20040;-86
2022/11/12 05:27:46;;;;;;;4.88;4.78;;;5.20;99.90;;;;;;4170223;28;20048;-86
2022/11/12 05:30:07;;;;;;;4.70;4.70;;;5.00;99.90;;;;;;4178501;28;20353;-86
2022/11/12 05:32:26;;;;;;;4.10;4.10;;;4.90;99.90;;;;;;4227475;28;20078;-86
2022/11/12 05:34:46;;;;;;;4.13;4.03;;;5.10;99.90;;;;;;4227931;28;20313;-86
2022/11/12 05:37:07;;;;;;;4.35;4.25;;;5.40;99.90;;;;;;4230044;28;20050;-86
2022/11/12 05:39:27;;;;;;;5.75;5.38;;;5.40;99.90;;;;;;4227801;28;20055;-86
2022/11/12 05:41:47;;;;;;;4.88;4.78;;;5.20;99.90;;;;;;4227118;28;20270;-86
2022/11/12 05:44:27;;;;;;;4.22;4.22;;;5.00;99.90;;;;;;4228719;28;20070;-86
2022/11/12 05:46:49;;;;;;;6.63;6.43;;;5.00;99.90;;;;;;4230586;28;20102;-86
2022/11/12 05:49:09;;;;;;;5.03;4.93;;;4.90;99.90;;;;;;4230033;28;20385;-86
2022/11/12 05:51:30;;;;;;;4.90;4.70;;;4.90;99.90;;;;;;4226384;28;20093;-86
2022/11/12 05:53:50;;;;;;;3.60;3.60;;;5.00;99.90;;;;;;4223914;28;20035;-86
2022/11/12 05:56:11;;;;;;;5.75;5.55;;;5.10;99.90;;;;;;4216703;28;20142;-86
2022/11/12 05:58:31;;;;;;;4.10;3.90;;;5.00;99.90;;;;;;4234166;28;20074;-86
2022/11/12 06:00:51;;;;;;;5.60;5.47;;;4.90;99.90;;;;;;4230410;28;20047;-86
2022/11/12 06:03:11;;;;;;;5.65;5.55;;;5.00;99.90;;;;;;4228898;28;20074;-86
2022/11/12 06:05:32;;;;;;;5.88;5.78;;;5.00;99.90;;;;;;4212374;28;20397;-86
2022/11/12 06:07:52;;;;;;;6.40;6.30;;;5.00;99.90;;;;;;4232228;28;20070;-86
2022/11/12 06:10:12;;;;;;;6.28;6.18;;;5.00;99.90;;;;;;4233436;28;20047;-86
2022/11/12 06:12:39;;;;;;;4.97;4.88;;;5.00;99.90;;;;;;4229217;28;20369;-86
2022/11/12 06:14:59;;;;;;;4.97;4.93;;;5.00;99.90;;;;;;4229956;28;20070;-86
2022/11/12 06:17:19;;;;;;;6.35;6.15;;;5.00;99.90;;;;;;4232140;28;20385;-86
2022/11/12 06:19:38;;;;;;;5.45;5.35;;;5.00;99.90;;;;;;4227791;28;20062;-86
2022/11/12 06:21:58;;;;;;;5.22;5.13;;;5.10;99.90;;;;;;4228120;28;20047;-86
2022/11/12 06:24:18;;;;;;;4.85;4.75;;;5.20;99.90;;;;;;4229970;28;20115;-87
2022/11/12 06:26:38;;;;;;;5.22;5.22;;;5.20;99.90;;;;;;4220300;28;20048;-87
2022/11/12 06:28:58;;;;;;;6.22;5.93;;;5.20;99.90;;;;;;4231658;28;20063;-87
2022/11/12 06:31:19;;;;;;;3.85;3.85;;;5.20;99.90;;;;;;4221846;28;20151;-88
2022/11/12 06:33:39;;;;;;;3.72;3.72;;;5.20;99.90;;;;;;4214174;28;20036;-87
2022/11/12 06:36:02;;;;;;;4.00;3.90;;;5.30;99.90;;;;;;4214939;28;20052;-88
2022/11/12 06:38:23;;;;;;;3.63;3.60;;;5.40;99.90;;;;;;4225011;28;20050;-87
2022/11/12 06:40:43;;;;;;;3.72;3.53;;;5.60;99.90;;;;;;4214232;28;20084;-88
2022/11/12 06:43:03;;;;;;;4.50;4.40;;;5.70;99.90;;;;;;4229786;28;20046;-88
2022/11/12 06:45:23;;;;;;;3.58;3.58;;;5.70;99.90;;;;;;4233911;28;20377;-88
2022/11/12 06:47:43;;;;;;;3.65;3.65;;;5.70;99.90;;;;;;4219194;28;20334;-88
2022/11/12 06:50:03;;;;;;;6.35;6.15;;;5.80;99.90;;;;;;4223898;28;20112;-87
2022/11/12 06:52:23;;;;;;;5.97;5.78;;;5.90;99.90;;;;;;4220380;28;20056;-88
2022/11/12 06:54:43;;;;;;;8.65;8.10;;;5.90;99.90;;;;;;4230567;28;20054;-87
2022/11/12 06:57:03;;;;;;;7.10;6.90;;;5.90;99.90;;;;;;4226390;28;20081;-88
2022/11/12 06:59:23;;;;;;;5.82;5.72;;;5.80;99.90;;;;;;4237775;28;20078;-88
2022/11/12 07:01:43;;;;;;;3.83;3.83;;;5.80;99.90;;;;;;4218712;28;20079;-88
2022/11/12 07:04:03;;;;;;;3.13;3.05;;;5.90;99.90;;;;;;4216215;28;20135;-88
2022/11/12 07:06:24;;;;;;;2.63;2.63;;;6.10;99.90;;;;;;4224006;28;20078;-88
2022/11/12 07:08:44;;;;;;;17.73;16.33;;;6.20;99.90;;;;;;4219898;28;20059;-87
2022/11/12 07:11:05;;;;;;;8.77;8.55;;;6.10;99.90;;;;;;4230746;28;20082;-87
2022/11/12 07:13:25;;;;;;;17.33;15.75;;;5.90;99.90;;;;;;4224481;28;20077;-87
2022/11/12 07:15:45;;;;;;;9.20;8.80;;;5.70;99.90;;;;;;4219553;28;20159;-88
2022/11/12 07:18:05;;;;;;;7.55;7.28;;;5.60;99.90;;;;;;4220983;28;20063;-88
2022/11/12 07:20:25;;;;;;;6.63;6.53;;;5.50;99.90;;;;;;4228765;28;20089;-87
2022/11/12 07:22:44;;;;;;;6.25;6.15;;;5.50;99.90;;;;;;4231587;28;20215;-88
2022/11/12 07:25:05;;;;;;;7.28;7.07;;;5.60;99.90;;;;;;4230586;28;20042;-87
2022/11/12 07:27:27;;;;;;;5.88;5.68;;;5.70;99.90;;;;;;4234088;28;20054;-88
2022/11/12 07:29:47;;;;;;;6.03;5.72;;;5.80;99.90;;;;;;4230617;28;20362;-87
2022/11/12 07:32:08;;;;;;;14.30;12.85;;;5.90;99.90;;;;;;4223995;28;20042;-87
2022/11/12 07:34:27;;;;;;;8.80;7.82;;;5.90;99.90;;;;;;4233622;28;20062;-87
2022/11/12 07:36:50;;;;;;;9.48;9.07;;;5.90;99.90;;;;;;4216019;28;20086;-87
2022/11/12 07:39:12;;;;;;;;;;;6.00;99.90;;;;;;4233872;28;20045;-87
2022/11/12 07:41:31;;;;;;;6.03;5.88;;;6.00;99.90;;;;;;4223768;28;20142;-88
2022/11/12 07:43:52;;;;;;;6.15;6.05;;;6.00;99.90;;;;;;4229005;28;20065;-87
2022/11/12 07:46:30;;;;;;;4.97;4.88;;;6.10;99.90;;;;;;4232283;28;20074;-87
2022/11/12 07:48:50;;;;;;;6.63;6.43;;;6.10;99.90;;;;;;4227241;28;20605;-87
2022/11/12 07:51:15;;;;;;;7.85;7.65;;;6.20;99.90;;;;;;4235855;28;20101;-87
2022/11/12 07:53:35;;;;;;;4.95;4.85;;;6.30;99.90;;;;;;4228782;28;20055;-88
2022/11/12 07:55:58;;;;;;;4.45;4.03;;;6.40;99.90;;;;;;4229059;28;20086;-88
2022/11/12 07:58:18;;;;;;;3.75;3.75;;;6.50;99.90;;;;;;4212002;28;20044;-87
2022/11/12 08:00:38;;;;;;;4.90;4.88;;;6.60;99.90;;;;;;4232300;28;20054;-88
2022/11/12 08:03:00;;;;;;;4.22;4.07;;;6.80;99.90;;;;;;4230011;28;20051;-88
2022/11/12 08:05:20;;;;;;;3.63;3.63;;;6.90;99.90;;;;;;4230535;28;20062;-88
2022/11/12 08:07:41;;;;;;;3.00;3.00;;;7.00;99.90;;;;;;4234246;28;20039;-88
2022/11/12 08:10:01;;;;;;;3.65;3.42;;;7.20;99.90;;;;;;4230700;28;20055;-88
2022/11/12 08:12:21;;;;;;;4.88;4.78;;;7.30;99.90;;;;;;4230445;28;20066;-87
2022/11/12 08:14:40;;;;;;;4.75;4.40;;;7.40;99.90;;;;;;4217369;28;20066;-88
2022/11/12 08:17:00;;;;;;;3.55;3.55;;;7.50;99.90;;;;;;4233365;28;20046;-87
2022/11/12 08:19:20;;;;;;;13.43;12.25;;;7.60;99.90;;;;;;4223777;28;20055;-88
2022/11/12 08:21:40;;;;;;;5.72;5.53;;;7.70;99.90;;;;;;4230048;28;20055;-88
2022/11/12 08:23:59;;;;;;;4.75;4.65;;;7.60;99.90;;;;;;4224689;28;20307;-87
2022/11/12 08:26:20;;;;;;;4.38;4.28;;;7.60;99.90;;;;;;4223481;28;20057;-88
2022/11/12 08:28:40;;;;;;;8.75;8.55;;;7.70;99.90;;;;;;4217339;28;20124;-87
2022/11/12 08:31:11;;;;;;;7.88;7.57;;;7.70;99.90;;;;;;4230438;28;20077;-88
2022/11/12 08:33:31;;;;;;;7.93;7.35;;;7.50;99.90;;;;;;4234879;28;20043;-88
2022/11/12 08:35:50;;;;;;;11.10;10.38;;;7.40;99.90;;;;;;4226975;28;20110;-88
2022/11/12 08:38:12;;;;;;;7.70;7.25;;;7.40;99.90;;;;;;4214512;28;20067;-88
2022/11/12 08:40:32;;;;;;;7.40;6.82;;;7.40;99.90;;;;;;4231184;28;20391;-87
2022/11/12 08:42:57;;;;;;;6.05;5.68;;;7.50;99.90;;;;;;4223739;28;20059;-87
2022/11/12 08:45:17;;;;;;;2.85;2.85;;;7.60;99.90;;;;;;4222634;28;20242;-87
2022/11/12 08:47:37;;;;;;;4.97;4.72;;;7.70;99.90;;;;;;4220033;28;20043;-87
2022/11/12 08:49:56;;;;;;;6.35;6.05;;;7.80;99.90;;;;;;4231219;28;20384;-88
2022/11/12 08:52:16;;;;;;;10.88;9.95;;;7.80;99.90;;;;;;4234949;28;20254;-88
2022/11/12 08:54:36;;;;;;;10.52;9.60;;;7.80;99.90;;;;;;4222241;28;20083;-88
2022/11/12 08:56:55;;;;;;;6.22;6.03;;;7.90;99.90;;;;;;4219543;28;20115;-88
2022/11/12 08:59:15;;;;;;;12.18;11.05;;;8.00;99.90;;;;;;4226375;28;20098;-88
2022/11/12 09:01:35;;;;;;;14.63;13.45;;;8.00;99.90;;;;;;4229808;28;20058;-88
2022/11/12 09:03:55;;;;;;;3.83;3.70;;;8.00;99.90;;;;;;4228815;28;20227;-87
2022/11/12 09:06:15;;;;;;;4.88;4.57;;;8.10;99.90;;;;;;4224555;28;20098;-87
2022/11/12 09:08:36;;;;;;;4.53;4.43;;;8.30;99.90;;;;;;4225786;28;20112;-88
2022/11/12 09:10:57;;;;;;;7.90;7.43;;;8.40;99.90;;;;;;4231438;28;20081;-88
2022/11/12 09:13:18;;;;;;;5.75;5.55;;;8.40;99.90;;;;;;4231252;28;20109;-88
2022/11/12 09:15:38;;;;;;;3.38;3.13;;;8.50;99.90;;;;;;4216988;28;20048;-87
2022/11/12 09:18:01;;;;;;;4.03;3.92;;;8.80;99.90;;;;;;4224199;28;20043;-87
2022/11/12 09:20:22;;;;;;;4.25;4.15;;;8.90;99.90;;;;;;4219932;28;20429;-88
2022/11/12 09:22:42;;;;;;;13.95;12.73;;;9.00;99.90;;;;;;4212359;28;20040;-87
2022/11/12 09:25:02;;;;;;;6.85;6.45;;;9.00;99.90;;;;;;4233095;28;20062;-88
2022/11/12 09:27:25;;;;;;;4.70;4.50;;;9.00;99.90;;;;;;4225861;28;20082;-88
2022/11/12 09:29:45;;;;;;;24.45;17.58;;;9.00;99.90;;;;;;4228521;28;20131;-88
2022/11/12 09:32:04;;;;;;;42.60;32.00;;;9.10;99.90;;;;;;4232278;28;20047;-88
2022/11/12 09:34:24;;;;;;;15.07;13.57;;;9.00;99.90;;;;;;4219918;28;20046;-88
2022/11/12 09:36:45;;;;;;;9.20;8.80;;;9.00;99.90;;;;;;4232829;28;20082;-88
2022/11/12 09:39:04;;;;;;;9.38;8.55;;;8.90;99.90;;;;;;4231616;28;20107;-88
2022/11/12 09:41:34;;;;;;;9.43;8.95;;;8.90;99.90;;;;;;4227948;28;20130;-88
2022/11/12 09:43:58;;;;;;;32.65;23.73;;;8.90;99.90;;;;;;4218381;28;20436;-88
2022/11/12 09:46:18;;;;;;;29.23;17.88;;;9.00;99.90;;;;;;4213020;28;20143;-88
2022/11/12 09:48:56;;;;;;;12.02;11.02;;;9.00;99.90;;;;;;4218543;28;20270;-88
2022/11/12 09:51:24;;;;;;;56.55;36.00;;;9.30;99.90;;;;;;4224570;28;20231;-87
2022/11/12 09:53:54;;;;;;;18.38;16.60;;;9.40;99.90;;;;;;4226769;28;20386;-88
2022/11/12 09:56:17;;;;;;;9.50;8.70;;;9.50;99.90;;;;;;4227776;28;20402;-88
2022/11/12 09:58:37;;;;;;;8.40;7.78;;;9.50;99.90;;;;;;4227080;28;20035;-87
2022/11/12 10:01:04;;;;;;;6.20;5.90;;;9.60;99.90;;;;;;4225969;28;20061;-88
2022/11/12 10:03:37;;;;;;;6.78;6.40;;;9.60;99.90;;;;;;4220799;28;20062;-88
2022/11/12 10:06:03;;;;;;;3.63;3.58;;;9.60;99.90;;;;;;4230868;28;20446;-88
2022/11/12 10:08:50;;;;;;;13.27;12.25;;;9.70;99.90;;;;;;4232128;28;20613;-88
2022/11/12 10:14:41;;;;;;;7.30;6.53;;;9.70;99.90;;;;;;4193272;28;20075;-88
2022/11/12 10:17:16;;;;;;;19.88;11.93;;;9.60;99.90;;;;;;4220801;28;20071;-88
2022/11/12 10:19:55;;;;;;;28.13;16.52;;;9.80;99.90;;;;;;4214505;28;20389;-88
2022/11/12 10:22:30;;;;;;;150.95;65.63;;;9.90;99.90;;;;;;4218888;28;20147;-88
2022/11/12 10:24:51;;;;;;;145.35;62.15;;;9.90;99.90;;;;;;4230812;28;20047;-88
2022/11/12 10:27:18;;;;;;;108.78;46.67;;;9.90;99.90;;;;;;4225018;28;20051;-88
2022/11/12 10:29:47;;;;;;;48.92;26.73;;;9.90;99.90;;;;;;4227264;28;20374;-88
2022/11/12 10:32:14;;;;;;;31.45;18.88;;;9.90;99.90;;;;;;4228137;28;20055;-88
2022/11/12 10:34:34;;;;;;;4.40;4.30;;;10.00;99.90;;;;;;4230781;28;20047;-88
2022/11/12 10:37:00;;;;;;;2.00;2.00;;;10.20;99.90;;;;;;4227557;28;20046;-88
2022/11/12 10:39:36;;;;;;;22.73;15.05;;;10.40;99.90;;;;;;4227841;28;20051;-85
2022/11/12 10:42:11;;;;;;;13.63;10.15;;;10.40;99.90;;;;;;4225417;28;20408;-86
2022/11/12 10:44:31;;;;;;;7.15;6.60;;;10.30;99.90;;;;;;4230962;28;20259;-85
2022/11/12 10:46:50;;;;;;;4.93;4.82;;;10.50;99.90;;;;;;4228587;28;20047;-86
2022/11/12 10:49:14;;;;;;;2.65;2.55;;;10.60;99.90;;;;;;4227799;28;20051;-86
2022/11/12 10:51:36;;;;;;;3.90;3.72;;;10.80;99.90;;;;;;4225397;28;20039;-86
2022/11/12 10:53:56;;;;;;;5.30;4.90;;;10.90;99.90;;;;;;4211240;28;20048;-86
2022/11/12 10:56:28;;;;;;;3.38;3.20;;;10.90;99.90;;;;;;4227235;28;20043;-86
2022/11/12 10:59:07;;;;;;;1.70;1.70;;;11.00;99.90;;;;;;4223779;28;20058;-86
2022/11/12 11:01:27;;;;;;;4.07;3.97;;;11.10;99.90;;;;;;4226883;28;20043;-86
2022/11/12 11:03:56;;;;;;;3.63;3.53;;;11.20;99.90;;;;;;4225814;28;20272;-86
2022/11/12 11:06:16;;;;;;;5.57;5.28;;;11.30;99.90;;;;;;4230795;28;20070;-86
2022/11/12 11:08:45;;;;;;;4.65;4.53;;;11.40;99.90;;;;;;4227249;28;20385;-86
2022/11/12 11:11:24;;;;;;;4.03;3.92;;;11.40;99.90;;;;;;4226063;28;20050;-86
2022/11/12 11:13:45;;;;;;;11.77;10.77;;;11.40;99.90;;;;;;4229273;28;20062;-86
2022/11/12 11:16:14;;;;;;;95.47;57.50;;;11.40;99.90;;;;;;4228405;28;20070;-86
2022/11/12 11:18:37;;;;;;;13.82;12.13;;;11.40;99.90;;;;;;4227173;28;20113;-86
2022/11/12 11:21:21;;;;;;;15.88;12.95;;;11.50;99.90;;;;;;4228443;28;20077;-86
2022/11/12 11:24:24;;;;;;;9.95;8.95;;;11.50;99.90;;;;;;4229491;28;20054;-86
2022/11/12 11:27:03;;;;;;;9.18;8.60;;;11.50;99.90;;;;;;4217364;28;20248;-86
2022/11/12 11:29:47;;;;;;;5.07;4.82;;;11.90;99.90;;;;;;4229556;28;20086;-86
2022/11/12 11:32:22;;;;;;;4.75;4.55;;;11.90;99.90;;;;;;4215028;28;20039;-86
2022/11/12 11:34:49;;;;;;;5.63;5.25;;;11.90;99.90;;;;;;4224439;28;20047;-86
2022/11/12 11:37:28;;;;;;;7.90;7.30;;;12.00;99.90;;;;;;4227019;28;20042;-86
2022/11/12 11:40:08;;;;;;;4.63;4.40;;;12.00;99.90;;;;;;4219529;28;20243;-86
2022/11/12 11:42:53;;;;;;;5.35;5.15;;;12.00;99.90;;;;;;4224454;28;20058;-86
2022/11/12 11:45:55;;;;;;;3.83;3.53;;;12.00;99.90;;;;;;4213962;28;20051;-86
2022/11/12 11:48:53;;;;;;;5.90;5.35;;;12.10;99.90;;;;;;4213671;28;20086;-88
2022/11/12 11:51:12;;;;;;;4.53;4.22;;;12.30;99.90;;;;;;4214561;28;20276;-87
2022/11/12 11:53:46;;;;;;;5.68;5.32;;;12.30;99.90;;;;;;4210975;28;20054;-87
2022/11/12 11:56:18;;;;;;;3.90;3.80;;;12.20;99.90;;;;;;4216247;28;20062;-87
2022/11/12 11:58:58;;;;;;;3.97;3.83;;;12.20;99.90;;;;;;4218845;28;20112;-87
2022/11/12 12:01:25;;;;;;;6.32;5.90;;;12.20;99.90;;;;;;4234827;28;20043;-88
2022/11/12 12:03:45;;;;;;;3.35;3.25;;;12.30;99.90;;;;;;4216510;28;20039;-88
2022/11/12 12:06:24;;;;;;;4.47;4.07;;;12.20;99.90;;;;;;4226332;28;20062;-89
2022/11/12 12:08:53;;;;;;;6.53;6.13;;;12.40;99.90;;;;;;4229696;28;20062;-88
2022/11/12 12:11:34;;;;;;;6.35;5.22;;;12.40;99.90;;;;;;4219667;28;20078;-88
2022/11/12 12:14:12;;;;;;;10.23;9.57;;;12.30;99.90;;;;;;4221381;28;20074;-88
2022/11/12 12:17:17;;;;;;;15.50;12.63;;;12.40;99.90;;;;;;4229336;28;20137;-88
2022/11/12 12:19:55;;;;;;;8.40;7.72;;;12.40;99.90;;;;;;4230976;28;20049;-88
2022/11/12 12:22:22;;;;;;;4.78;4.43;;;12.30;99.90;;;;;;4231269;28;20111;-88
2022/11/12 12:25:14;;;;;;;30.00;21.55;;;12.40;99.90;;;;;;4233428;28;20275;-88
2022/11/12 12:27:42;;;;;;;10.00;9.35;;;12.50;99.90;;;;;;4234976;28;20051;-88
2022/11/12 12:30:17;;;;;;;14.10;11.10;;;12.50;99.90;;;;;;4231546;28;20111;-88
2022/11/12 12:32:45;;;;;;;6.15;5.65;;;12.90;99.90;;;;;;4228551;28;20047;-88
2022/11/12 12:35:30;;;;;;;11.45;10.27;;;12.90;99.90;;;;;;4231833;28;20058;-88
2022/11/12 12:38:13;;;;;;;13.05;10.43;;;13.00;99.90;;;;;;4231100;28;20053;-88
2022/11/12 12:41:00;;;;;;;27.02;20.35;;;12.80;99.90;;;;;;4215910;28;20042;-83
2022/11/12 12:43:37;;;;;;;8.73;8.18;;;12.70;99.90;;;;;;4229307;28;20039;-83
2022/11/12 12:45:57;;;;;;;6.72;6.22;;;12.90;99.90;;;;;;4227050;28;20385;-83
2022/11/12 12:48:45;;;;;;;6.30;6.00;;;13.10;99.90;;;;;;4225884;28;20062;-83
2022/11/12 12:51:05;;;;;;;27.83;20.98;;;13.50;99.90;;;;;;4226345;28;20108;-83
2022/11/12 12:53:28;;;;;;;25.75;18.65;;;13.30;99.90;;;;;;4228204;28;20046;-84
2022/11/12 12:55:52;;;;;;;;;;;12.90;99.90;;;;;;4213256;28;20051;-83
2022/11/12 12:58:25;;;;;;;23.05;20.60;;;12.70;99.90;;;;;;4228384;28;19980;-83